• Join FlightAware (Why Join?)
  • Login
  • US Flag 
02:53AM EDT


 

Airport Tracker/Info


-or-


 

Live Flight TrackerFlight Track Log ✈ SWA34 ✈ 07-May-2013 ✈ KTUL - KSTL

Flight Track Log - Related Links

Times and Time Zones

All times are in EDT time to prevent confusion due to time zone crossing. See the SWA34 flight status page for this flight to view local times or setup timezone preferences in your user account.

Time Position Orientation Groundspeed Altitude Reporting Facility
EDT Latitude Longitude Course Direction KTS MPH feet Rate Location/Type
06:25PM 36.1975 -95.8164 87° East 204 235 2,900  Level Kansas City Center
06:26PM 36.2011 -95.7358 87° East 279 321 5,100 2,640 Climbing Kansas City Center
06:27PM 36.2297 -95.6461 68° East 282 325 8,300 2,700 Climbing Kansas City Center
06:28PM 36.2744 -95.5589 58° Northeast 295 339 11,000 2,700 Climbing Kansas City Center
06:29PM 36.3244 -95.4586 58° Northeast 333 383 14,000 2,820 Climbing Kansas City Center
06:30PM 36.3819 -95.3442 58° Northeast 362 417 16,900 2,460 Climbing Kansas City Center
06:31PM 36.4381 -95.2331 58° Northeast 377 434 19,200 2,460 Climbing Kansas City Center
06:32PM 36.4956 -95.1175 58° Northeast 389 448 22,000 2,100 Climbing Kansas City Center
06:33PM 36.5583 -94.9889 59° Northeast 400 460 23,600 1,860 Climbing Kansas City Center
06:34PM 36.6308 -94.8436 58° Northeast 409 471 25,900 2,100 Climbing Kansas City Center
06:35PM 36.6922 -94.7153 59° Northeast 424 488 28,000 1,800 Climbing Kansas City Center
06:36PM 36.7547 -94.5883 58° Northeast 429 494 29,700 1,680 Climbing Kansas City Center
06:37PM 36.8186 -94.4594 58° Northeast 434 499 31,500 1,560 Climbing Kansas City Center
06:38PM 36.8806 -94.3311 59° Northeast 432 497 33,000 720 Climbing Kansas City Center
06:39PM 36.9408 -94.2017 60° Northeast 432 497 33,000 480 Level Kansas City Center
06:40PM 37.0164 -94.0433 59° Northeast 440 506 34,000 960 Climbing Kansas City Center
06:41PM 37.0800 -93.9119 59° Northeast 441 507 35,000 480 Climbing Kansas City Center
06:42PM 37.1408 -93.7842 59° Northeast 438 504 35,000  Level Kansas City Center
06:43PM 37.2025 -93.6550 59° Northeast 434 499 35,000  Level Kansas City Center
06:44PM 37.2633 -93.5261 59° Northeast 430 495 35,000  Level Kansas City Center
06:45PM 37.3264 -93.3981 58° Northeast 430 495 35,000  Level Kansas City Center
06:46PM 37.4167 -93.2600 51° Northeast 429 494 35,000  Level Kansas City Center
06:47PM 37.5061 -93.1578 42° Northeast 430 495 35,000 -420 Level Kansas City Center
06:48PM 37.5975 -93.0575 41° Northeast 433 498 34,200 -900 Descending Kansas City Center
06:49PM 37.6858 -92.9514 44° Northeast 436 502 33,200 -960 Descending Kansas City Center
06:50PM 37.7750 -92.8444 43° Northeast 438 504 32,300 -1,020 Descending Kansas City Center
06:52PM 37.8750 -92.7281 43° Northeast 435 501 31,200 -660 Descending Kansas City Center
06:53PM 37.9503 -92.6083 51° Northeast 439 505 31,000 -120 Descending Kansas City Center
06:54PM 38.0200 -92.4786 56° Northeast 445 512 31,000  Level Kansas City Center
06:55PM 38.0922 -92.3483 55° Northeast 451 519 31,000  Level Kansas City Center
06:56PM 38.1617 -92.2167 56° Northeast 451 519 31,000  Level Kansas City Center
06:57PM 38.2422 -92.0639 56° Northeast 444 511 31,000  Level Kansas City Center
06:58PM 38.3106 -91.9342 56° Northeast 441 507 31,000 -420 Level Kansas City Center
06:59PM 38.3797 -91.8042 56° Northeast 440 506 30,200 -1,680 Descending Kansas City Center
07:00PM 38.4475 -91.6778 56° Northeast 437 503 27,600 -2,460 Descending Kansas City Center
07:01PM 38.5111 -91.5558 56° Northeast 425 489 25,200 -2,280 Descending Kansas City Center
07:02PM 38.5711 -91.4392 57° Northeast 407 468 22,900 -2,280 Descending Kansas City Center
07:03PM 38.6308 -91.3286 55° Northeast 393 452 20,600 -2,400 Descending Kansas City Center
07:04PM 38.6953 -91.1978 58° Northeast 375 432 18,000 -2,040 Descending Kansas City Center
07:05PM 38.7153 -91.0794 78° East 355 409 16,500 -1,380 Descending Kansas City Center
07:06PM 38.7322 -90.9592 80° East 347 399 15,200 -1,680 Descending Kansas City Center
07:07PM 38.7244 -90.8369 95° East 347 399 13,100 -2,100 Descending Kansas City Center
07:08PM 38.7208 -90.7186 92° East 340 391 10,900 -1,620 Descending Kansas City Center
07:09PM 38.7175 -90.6086 92° East 326 375 9,800 -1,500 Descending Kansas City Center
07:10PM 38.6994 -90.4967 102° East 292 336 7,900 -1,380 Descending Kansas City Center
07:11PM 38.6608 -90.4181 122° Southeast 272 313 7,000 -960 Descending Kansas City Center
07:12PM 38.6242 -90.3439 122° Southeast 260 299 6,000 -840 Descending Kansas City Center
07:13PM 38.6042 -90.2742 110° East 238 274 5,300 -1,140 Descending Kansas City Center
07:14PM 38.6581 -90.2267 35° Northeast 209 241 3,700 -1,500 Descending Kansas City Center
07:15PM 38.6997 -90.2600 328° Northwest 200 230 2,200 -1,080 Descending Kansas City Center
07:16PM 38.7239 -90.3089 302° West 181 208 1,500 -780 Descending Kansas City Center
07:17PM 38.7472 -90.3567 302° West 163 188 600 -900 Descending Kansas City Center